createdAt,value
2019-04-16T00:02:00.259Z,100461.38
2019-04-16T00:04:41.543Z,100466.13
2019-04-16T00:07:28.161Z,100465.67
2019-04-16T00:10:15.062Z,100475.69
2019-04-16T00:12:52.781Z,100463.63
2019-04-16T00:15:22.706Z,100471.53
2019-04-16T00:17:52.638Z,100471.48
2019-04-16T00:20:22.648Z,100472.75
2019-04-16T00:23:03.227Z,100470.90
2019-04-16T00:25:33.490Z,100472.71
2019-04-16T00:28:03.439Z,100472.15
2019-04-16T00:30:35.656Z,100470.67
2019-04-16T00:33:07.524Z,100473.54
2019-04-16T00:35:36.698Z,100476.28
2019-04-16T00:38:06.640Z,100473.75
2019-04-16T00:40:36.586Z,100474.63
2019-04-16T00:43:06.504Z,100470.73
2019-04-16T00:45:36.548Z,100471.69
2019-04-16T00:48:06.484Z,100475.25
2019-04-16T00:50:36.417Z,100468.28
2019-04-16T00:53:08.317Z,100471.66
2019-04-16T00:55:38.016Z,100468.83
2019-04-16T00:58:07.920Z,100474.16
2019-04-16T01:00:37.793Z,100474.95
2019-04-16T01:03:07.827Z,100476.34
2019-04-16T01:05:37.767Z,100480.64
2019-04-16T01:08:07.594Z,100483.15
2019-04-16T01:10:37.439Z,100494.17
2019-04-16T01:13:07.464Z,100497.80
2019-04-16T01:15:37.495Z,100498.73
2019-04-16T01:18:08.880Z,100499.33
2019-04-16T01:20:40.465Z,100507.55
2019-04-16T01:23:10.676Z,100502.04
2019-04-16T01:25:40.611Z,100501.28
2019-04-16T01:28:31.944Z,100500.80
2019-04-16T01:31:08.119Z,100494.39
2019-04-16T01:33:48.974Z,100497.31
2019-04-16T01:36:36.832Z,100499.42
2019-04-16T01:39:17.406Z,100497.06
2019-04-16T01:41:40.466Z,100501.73
2019-04-16T01:44:10.434Z,100505.14
2019-04-16T01:46:40.319Z,100507.55
2019-04-16T01:49:11.534Z,100498.87
2019-04-16T01:51:41.632Z,100502.09
2019-04-16T01:54:11.678Z,100514.38
2019-04-16T01:56:41.607Z,100510.92
2019-04-16T01:59:11.436Z,100515.20
2019-04-16T02:01:43.391Z,100519.36
2019-04-16T02:04:13.149Z,100524.98
2019-04-16T02:06:43.191Z,100525.17
2019-04-16T02:09:22.246Z,100529.23
2019-04-16T02:11:44.806Z,100539.33
2019-04-16T02:14:17.957Z,100536.62
2019-04-16T02:16:46.501Z,100532.05
2019-04-16T02:19:16.545Z,100532.14
2019-04-16T02:21:46.469Z,100527.98
2019-04-16T02:24:18.830Z,100536.50
2019-04-16T02:26:48.178Z,100531.17
2019-04-16T02:29:18.225Z,100534.96
2019-04-16T02:31:51.785Z,100537.56
2019-04-16T02:34:19.837Z,100547.47
2019-04-16T02:36:49.766Z,100542.98
2019-04-16T02:39:25.757Z,100546.41
2019-04-16T02:41:56.988Z,100547.95
2019-04-16T02:44:23.056Z,100550.06
2019-04-16T02:46:52.980Z,100554.43
2019-04-16T02:49:24.898Z,100552.77
2019-04-16T02:52:02.019Z,100553.68
2019-04-16T02:54:34.349Z,100558.59
2019-04-16T02:57:06.559Z,100553.59
2019-04-16T02:59:38.319Z,100558.05
2019-04-16T03:02:28.079Z,100563.02
2019-04-16T03:05:11.940Z,100561.92
2019-04-16T03:07:41.763Z,100577.84
2019-04-16T03:10:13.635Z,100580.90
2019-04-16T03:12:43.465Z,100576.09
2019-04-16T03:15:15.039Z,100576.09
2019-04-16T03:17:45.798Z,100587.38
2019-04-16T03:20:17.569Z,100583.82
2019-04-16T03:22:47.499Z,100583.61
2019-04-16T03:25:17.332Z,100580.77
2019-04-16T03:27:47.379Z,100587.98
2019-04-16T03:30:17.918Z,100599.17
2019-04-16T03:32:49.379Z,100603.73
2019-04-16T03:35:25.410Z,100601.33
2019-04-16T03:37:52.328Z,100611.02
2019-04-16T03:40:25.568Z,100605.69
2019-04-16T03:42:58.888Z,100616.29
2019-04-16T03:45:25.611Z,100624.19
2019-04-16T03:47:55.656Z,100624.83
2019-04-16T03:50:30.980Z,100632.02
2019-04-16T03:52:57.259Z,100637.23
2019-04-16T03:55:27.203Z,100636.72
2019-04-16T03:57:57.115Z,100641.30
2019-04-16T04:00:27.058Z,100643.70
2019-04-16T04:02:57.092Z,100650.17
2019-04-16T04:05:27.028Z,100654.00
2019-04-16T04:07:57.065Z,100653.59
2019-04-16T04:10:30.747Z,100658.91
2019-04-16T04:12:58.673Z,100658.51
2019-04-16T04:15:28.612Z,100651.94
2019-04-16T04:17:58.641Z,100666.09
2019-04-16T04:20:28.581Z,100668.09
2019-04-16T04:22:58.618Z,100667.89
2019-04-16T04:25:28.553Z,100669.96
2019-04-16T04:27:59.711Z,100676.23
2019-04-16T04:30:29.723Z,100673.62
2019-04-16T04:33:00.190Z,100675.08
2019-04-16T04:35:31.656Z,100675.69
2019-04-16T04:38:03.615Z,100680.91
2019-04-16T04:40:44.463Z,100685.88
2019-04-16T04:43:05.455Z,100673.07
2019-04-16T04:45:40.922Z,100676.39
2019-04-16T04:48:11.473Z,100677.61
2019-04-16T04:50:43.447Z,100685.73
2019-04-16T04:53:15.646Z,100688.95
2019-04-16T04:55:48.326Z,100691.86
2019-04-16T04:58:18.261Z,100684.59
2019-04-16T05:00:48.803Z,100686.55
2019-04-16T05:03:39.921Z,100681.03
2019-04-16T05:06:12.197Z,100680.17
2019-04-16T05:08:42.421Z,100688.30
2019-04-16T05:11:15.245Z,100679.97
2019-04-16T05:13:44.765Z,100683.88
2019-04-16T05:16:15.838Z,100684.14
2019-04-16T05:18:47.077Z,100690.17
2019-04-16T05:21:19.347Z,100693.53
2019-04-16T05:23:49.517Z,100691.61
2019-04-16T05:26:22.274Z,100694.72
2019-04-16T05:29:19.781Z,100687.17
2019-04-16T05:31:54.574Z,100686.88
2019-04-16T05:34:25.585Z,100689.51
2019-04-16T05:36:56.120Z,100688.23
2019-04-16T05:39:28.261Z,100694.78
2019-04-16T05:41:58.670Z,100701.27
2019-04-16T05:44:33.205Z,100700.12
2019-04-16T05:47:00.858Z,100698.08
2019-04-16T05:49:31.612Z,100701.31
2019-04-16T05:52:03.757Z,100701.31
2019-04-16T05:54:36.593Z,100702.19
2019-04-16T05:57:15.332Z,100700.97
2019-04-16T05:59:45.259Z,100703.99
2019-04-16T06:02:21.026Z,100703.05
2019-04-16T06:04:55.587Z,100700.91
2019-04-16T06:07:24.429Z,100704.84
2019-04-16T06:09:55.535Z,100703.53
2019-04-16T06:12:32.376Z,100708.34
2019-04-16T06:15:22.570Z,100704.95
2019-04-16T06:18:07.951Z,100710.94
2019-04-16T06:20:43.136Z,100709.55
2019-04-16T06:23:17.402Z,100704.73
2019-04-16T06:25:50.572Z,100705.05
2019-04-16T06:28:23.180Z,100700.00
2019-04-16T06:30:58.328Z,100710.70
2019-04-16T06:33:41.739Z,100717.31
2019-04-16T06:36:29.290Z,100726.11
2019-04-16T06:39:00.840Z,100721.34
2019-04-16T06:41:41.565Z,100725.37
2019-04-16T06:44:07.190Z,100729.36
2019-04-16T06:46:40.560Z,100729.66
2019-04-16T06:49:28.406Z,100730.26
2019-04-16T06:52:03.531Z,100725.60
2019-04-16T06:54:51.796Z,100729.20
2019-04-16T06:57:26.781Z,100740.81
2019-04-16T06:59:59.557Z,100742.03
2019-04-16T07:03:01.284Z,100734.46
2019-04-16T07:05:33.462Z,100731.73
2019-04-16T07:08:37.142Z,100735.84
2019-04-16T07:11:03.578Z,100739.88
2019-04-16T07:13:34.093Z,100739.27
2019-04-16T07:16:08.608Z,100744.54
2019-04-16T07:18:39.363Z,100737.66
2019-04-16T07:21:11.235Z,100742.58
2019-04-16T07:23:45.244Z,100743.84
2019-04-16T07:26:15.238Z,100744.28
2019-04-16T07:28:47.578Z,100741.70
2019-04-16T07:31:32.695Z,100753.56
2019-04-16T07:34:12.309Z,100749.53
2019-04-16T07:36:50.093Z,100751.73
2019-04-16T07:39:29.699Z,100750.38
2019-04-16T07:42:20.875Z,100751.87
2019-04-16T07:45:02.477Z,100750.38
2019-04-16T07:50:46.652Z,100750.59
2019-04-16T07:53:32.862Z,100746.81
2019-04-16T07:56:16.079Z,100754.22
2019-04-16T07:58:45.924Z,100763.17
2019-04-16T08:01:16.466Z,100763.36
2019-04-16T08:03:46.383Z,100761.39
2019-04-16T08:06:16.261Z,100758.32
2019-04-16T08:08:46.578Z,100759.26
2019-04-16T08:11:17.392Z,100755.35
2019-04-16T08:13:47.297Z,100746.00
2019-04-16T08:16:17.060Z,100747.81
2019-04-16T08:18:50.533Z,100741.01
2019-04-16T08:21:22.521Z,100744.55
2019-04-16T08:23:53.575Z,100746.14
2019-04-16T08:26:23.484Z,100743.42
2019-04-16T08:28:53.433Z,100735.80
2019-04-16T08:31:25.544Z,100728.08
2019-04-16T08:33:55.226Z,100723.84
2019-04-16T08:36:25.121Z,100724.63
2019-04-16T08:38:54.984Z,100726.72
2019-04-16T08:41:24.879Z,100723.96
2019-04-16T08:43:55.107Z,100728.53
2019-04-16T08:46:28.063Z,100733.45
2019-04-16T08:48:56.656Z,100728.03
2019-04-16T08:51:30.813Z,100725.63
2019-04-16T08:53:58.118Z,100730.11
2019-04-16T08:56:28.074Z,100727.09
2019-04-16T08:59:01.171Z,100725.41
2019-04-16T09:01:31.123Z,100726.95
2019-04-16T09:04:02.758Z,100730.75
2019-04-16T09:06:32.656Z,100742.13
2019-04-16T09:09:12.408Z,100766.02
2019-04-16T09:11:37.293Z,100758.37
2019-04-16T09:14:07.928Z,100760.36
2019-04-16T09:16:44.328Z,100764.72
2019-04-16T09:19:21.310Z,100761.55
2019-04-16T09:21:51.606Z,100762.61
2019-04-16T09:24:28.851Z,100770.02
2019-04-16T09:27:01.248Z,100769.31
2019-04-16T09:29:44.600Z,100774.19
2019-04-16T09:32:32.405Z,100774.44
2019-04-16T09:35:14.550Z,100774.06
2019-04-16T09:37:44.606Z,100780.38
2019-04-16T09:40:31.340Z,100778.83
2019-04-16T09:43:15.688Z,100771.75
2019-04-16T09:45:43.555Z,100780.38
2019-04-16T09:48:15.139Z,100780.14
2019-04-16T09:50:47.893Z,100781.02
2019-04-16T09:53:16.451Z,100788.65
2019-04-16T09:55:47.593Z,100789.84
2019-04-16T09:58:21.796Z,100789.69
2019-04-16T10:00:52.735Z,100779.05
2019-04-16T10:03:36.273Z,100800.73
2019-04-16T10:06:08.665Z,100795.73
2019-04-16T10:08:38.513Z,100802.95
2019-04-16T10:11:08.420Z,100798.27
2019-04-16T10:13:38.164Z,100805.07
2019-04-16T10:16:09.610Z,100810.63
2019-04-16T10:18:39.462Z,100804.27
2019-04-16T10:21:09.344Z,100811.52
2019-04-16T10:23:43.604Z,100807.63
2019-04-16T10:26:13.925Z,100813.14
2019-04-16T10:28:47.946Z,100811.16
2019-04-16T10:31:19.414Z,100808.44
2019-04-16T10:33:49.243Z,100811.19
2019-04-16T10:36:19.107Z,100822.77
2019-04-16T10:38:51.746Z,100812.42
2019-04-16T10:41:29.038Z,100808.53
2019-04-16T10:44:03.317Z,100813.59
2019-04-16T10:46:38.468Z,100811.66
2019-04-16T10:49:11.349Z,100814.69
2019-04-16T10:52:00.669Z,100807.23
2019-04-16T10:54:38.297Z,100810.68
2019-04-16T10:57:26.948Z,100808.84
2019-04-16T11:00:16.313Z,100805.70
2019-04-16T11:02:53.520Z,100812.63
2019-04-16T11:05:25.011Z,100817.56
2019-04-16T11:07:56.502Z,100828.18
2019-04-16T11:10:26.487Z,100825.80
2019-04-16T11:12:56.388Z,100829.20
2019-04-16T11:15:27.126Z,100826.19
2019-04-16T11:17:57.095Z,100822.02
2019-04-16T11:20:26.930Z,100818.33
2019-04-16T11:22:56.777Z,100825.58
2019-04-16T11:25:26.627Z,100821.84
2019-04-16T11:27:56.535Z,100819.27
2019-04-16T11:30:30.980Z,100809.31
2019-04-16T11:33:00.931Z,100805.06
2019-04-16T11:35:30.798Z,100814.87
2019-04-16T11:38:00.739Z,100820.06
2019-04-16T11:40:30.643Z,100814.77
2019-04-16T11:43:00.546Z,100824.48
2019-04-16T11:45:31.498Z,100825.09
2019-04-16T11:48:01.411Z,100831.61
2019-04-16T11:50:31.411Z,100831.41
2019-04-16T11:53:01.268Z,100839.81
2019-04-16T11:55:31.266Z,100840.66
2019-04-16T11:58:01.134Z,100840.20
2019-04-16T12:00:38.549Z,100842.70
2019-04-16T12:03:17.421Z,100841.26
2019-04-16T12:05:57.934Z,100843.47
2019-04-16T12:08:38.327Z,100836.08
2019-04-16T12:11:12.540Z,100835.58
2019-04-16T12:13:49.704Z,100840.86
2019-04-16T12:16:37.430Z,100839.38
2019-04-16T12:19:26.876Z,100846.86
2019-04-16T12:22:16.370Z,100851.22
2019-04-16T12:25:04.112Z,100844.97
2019-04-16T12:27:35.618Z,100850.77
2019-04-16T12:30:26.393Z,100846.02
2019-04-16T12:33:14.152Z,100851.77
2019-04-16T12:35:50.765Z,100847.59
2019-04-16T12:38:28.246Z,100844.31
2019-04-16T12:41:08.700Z,100839.20
2019-04-16T12:43:40.174Z,100840.22
2019-04-16T12:46:11.593Z,100838.62
2019-04-16T12:48:55.154Z,100840.32
2019-04-16T12:51:41.572Z,100843.68
2019-04-16T12:54:13.099Z,100840.13
2019-04-16T12:56:53.722Z,100839.12
2019-04-16T12:59:37.352Z,100844.73
2019-04-16T13:02:17.473Z,100848.13
2019-04-16T13:04:49.510Z,100833.03
2019-04-16T13:07:39.119Z,100845.05
2019-04-16T13:10:11.007Z,100840.02
2019-04-16T13:12:42.649Z,100850.98
2019-04-16T13:15:17.425Z,100850.42
2019-04-16T13:18:05.116Z,100842.87
2019-04-16T13:20:45.192Z,100852.70
2019-04-16T13:23:38.154Z,100849.71
2019-04-16T13:26:27.767Z,100849.98
2019-04-16T13:28:59.254Z,100851.32
2019-04-16T13:31:32.311Z,100854.89
2019-04-16T13:34:02.103Z,100862.30
2019-04-16T13:36:32.673Z,100857.40
2019-04-16T13:39:09.967Z,100851.38
2019-04-16T13:41:42.588Z,100856.28
2019-04-16T13:44:26.157Z,100858.14
2019-04-16T13:47:02.951Z,100854.39
2019-04-16T13:49:34.953Z,100853.31
2019-04-16T13:52:17.066Z,100861.03
2019-04-16T13:55:01.498Z,100860.64
2019-04-16T13:57:34.330Z,100855.52
2019-04-16T14:00:09.870Z,100857.80
2019-04-16T14:02:47.728Z,100854.75
2019-04-16T14:05:17.981Z,100858.86
2019-04-16T14:07:47.800Z,100854.99
2019-04-16T14:10:17.751Z,100865.04
2019-04-16T14:12:47.713Z,100864.84
2019-04-16T14:15:31.184Z,100868.52
2019-04-16T14:17:53.111Z,100867.53
2019-04-16T14:20:22.515Z,100864.07
2019-04-16T14:22:53.660Z,100871.77
2019-04-16T14:25:24.062Z,100866.67
2019-04-16T14:27:55.997Z,100866.56
2019-04-16T14:30:28.662Z,100874.66
2019-04-16T14:33:00.101Z,100876.38
2019-04-16T14:35:33.500Z,100877.84
2019-04-16T14:38:03.170Z,100879.03
2019-04-16T14:40:35.473Z,100873.10
2019-04-16T14:43:06.802Z,100877.64
2019-04-16T14:45:56.992Z,100877.50
2019-04-16T14:48:12.825Z,100868.45
2019-04-16T14:50:45.888Z,100872.69
2019-04-16T14:53:17.371Z,100876.66
2019-04-16T14:56:00.669Z,100875.20
2019-04-16T14:58:29.326Z,100880.31
2019-04-16T15:01:02.235Z,100883.14
2019-04-16T15:03:50.041Z,100878.98
2019-04-16T15:06:21.453Z,100878.95
2019-04-16T15:08:52.819Z,100884.08
2019-04-16T15:11:43.528Z,100875.86
2019-04-16T15:14:29.330Z,100878.46
2019-04-16T15:17:12.749Z,100884.50
2019-04-16T15:19:45.582Z,100883.27
2019-04-16T15:22:18.684Z,100881.36
2019-04-16T15:24:54.632Z,100883.00
2019-04-16T15:27:28.248Z,100894.19
2019-04-16T15:29:59.444Z,100889.08
2019-04-16T15:32:44.903Z,100889.26
2019-04-16T15:35:21.723Z,100884.28
2019-04-16T15:38:08.328Z,100884.02
2019-04-16T15:40:42.630Z,100881.78
2019-04-16T15:43:19.147Z,100884.50
2019-04-16T15:46:04.312Z,100892.69
2019-04-16T15:48:43.766Z,100886.78
2019-04-16T15:51:24.074Z,100888.91
2019-04-16T15:53:58.634Z,100897.85
2019-04-16T15:56:36.190Z,100899.22
2019-04-16T15:59:07.729Z,100897.99
2019-04-16T16:01:39.170Z,100899.52
2019-04-16T16:04:13.447Z,100903.22
2019-04-16T16:06:44.955Z,100905.56
2019-04-16T16:09:25.297Z,100907.81
2019-04-16T16:11:59.750Z,100908.28
2019-04-16T16:14:33.050Z,100911.04
2019-04-16T16:17:01.115Z,100913.84
2019-04-16T16:19:31.005Z,100911.37
2019-04-16T16:22:01.829Z,100918.58
2019-04-16T16:24:31.756Z,100925.53
2019-04-16T16:27:01.695Z,100924.31
2019-04-16T16:29:31.549Z,100929.91
2019-04-16T16:32:01.332Z,100934.88
2019-04-16T16:34:31.206Z,100935.33
2019-04-16T16:37:00.964Z,100936.98
2019-04-16T16:39:30.885Z,100936.98
2019-04-16T16:42:00.927Z,100935.33
2019-04-16T16:44:30.855Z,100942.40
2019-04-16T16:47:18.888Z,100949.31
2019-04-16T16:49:48.815Z,100953.55
2019-04-16T16:52:20.281Z,100958.68
2019-04-16T16:54:51.686Z,100966.95
2019-04-16T16:57:23.221Z,100968.01
2019-04-16T17:00:00.563Z,100966.59
2019-04-16T17:02:32.221Z,100968.20
2019-04-16T17:05:03.693Z,100969.86
2019-04-16T17:07:33.671Z,100969.11
2019-04-16T17:10:04.079Z,100975.45
2019-04-16T17:12:33.824Z,100969.11
2019-04-16T17:15:03.724Z,100974.00
2019-04-16T17:17:33.540Z,100974.71
2019-04-16T17:20:03.609Z,100974.50
2019-04-16T17:22:36.013Z,100980.80
2019-04-16T17:25:10.467Z,100985.94
2019-04-16T17:27:50.542Z,100988.47
2019-04-16T17:30:10.701Z,100986.90
2019-04-16T17:32:43.673Z,100987.34
2019-04-16T17:35:15.588Z,100989.02
2019-04-16T17:37:43.945Z,100990.69
2019-04-16T17:40:18.338Z,100992.49
2019-04-16T17:42:50.524Z,100994.55
2019-04-16T17:45:38.012Z,100999.48
2019-04-16T17:48:18.111Z,100992.80
2019-04-16T17:51:05.925Z,101000.60
2019-04-16T17:53:43.651Z,101001.40
2019-04-16T17:56:33.290Z,100999.53
2019-04-16T17:59:16.416Z,101005.11
2019-04-16T18:01:54.956Z,101012.31
2019-04-16T18:04:46.966Z,101016.70
2019-04-16T18:07:34.267Z,101020.47
2019-04-16T18:10:10.404Z,101015.84
2019-04-16T18:13:01.175Z,101017.30
2019-04-16T18:15:34.755Z,101008.55
2019-04-16T18:18:06.112Z,101006.89
2019-04-16T18:20:40.649Z,101018.98
2019-04-16T18:23:30.267Z,101017.14
2019-04-16T18:26:01.728Z,101019.03
2019-04-16T18:28:48.105Z,101019.03
2019-04-16T18:31:23.530Z,101019.17
2019-04-16T18:34:10.123Z,101017.70
2019-04-16T18:36:44.454Z,101018.88
2019-04-16T18:39:37.162Z,101013.77
2019-04-16T18:42:11.772Z,101013.23
2019-04-16T18:44:59.364Z,101010.81
2019-04-16T18:47:40.013Z,101016.47
2019-04-16T18:50:12.012Z,101013.53
2019-04-16T18:52:41.807Z,101008.02
2019-04-16T18:55:11.655Z,101008.10
2019-04-16T18:57:41.507Z,101007.91
2019-04-16T19:00:32.236Z,101011.86
2019-04-16T19:03:02.946Z,101012.28
2019-04-16T19:05:32.817Z,101015.84
2019-04-16T19:08:02.709Z,101015.42
2019-04-16T19:10:32.576Z,101013.13
2019-04-16T19:13:11.260Z,101014.26
2019-04-16T19:15:41.295Z,101008.94
2019-04-16T19:18:19.777Z,101006.01
2019-04-16T19:20:43.924Z,101006.35
2019-04-16T19:23:13.784Z,100991.62
2019-04-16T19:25:44.746Z,100996.34
2019-04-16T19:28:14.685Z,101007.39
2019-04-16T19:30:44.616Z,101007.70
2019-04-16T19:33:14.451Z,100997.70
2019-04-16T19:35:44.286Z,100997.05
2019-04-16T19:38:17.851Z,100999.56
2019-04-16T19:40:50.519Z,100999.06
2019-04-16T19:43:19.157Z,101001.55
2019-04-16T19:45:49.075Z,100998.94
2019-04-16T19:48:34.279Z,101002.08
2019-04-16T19:50:50.477Z,101010.22
2019-04-16T19:53:21.342Z,101003.95
2019-04-16T19:55:51.204Z,101006.76
2019-04-16T19:58:21.097Z,101004.36
2019-04-16T20:00:54.003Z,101002.70
2019-04-16T20:03:22.663Z,101005.52
2019-04-16T20:05:53.098Z,101006.87
2019-04-16T20:08:22.934Z,101004.36
2019-04-16T20:10:53.240Z,101010.84
2019-04-16T20:13:24.431Z,101013.23
2019-04-16T20:15:54.285Z,101008.34
2019-04-16T20:18:30.144Z,101010.63
2019-04-16T20:21:01.237Z,101004.48
2019-04-16T20:23:31.880Z,101018.15
2019-04-16T20:26:01.701Z,101014.48
2019-04-16T20:28:32.574Z,101020.64
2019-04-16T20:31:04.246Z,101011.47
2019-04-16T20:33:34.045Z,101004.67
2019-04-16T20:36:03.947Z,101009.99
2019-04-16T20:38:33.801Z,101011.77
2019-04-16T20:41:03.789Z,101012.20
2019-04-16T20:43:33.537Z,101009.77
2019-04-16T20:46:03.355Z,101004.77
2019-04-16T20:48:33.219Z,101008.53
2019-04-16T20:51:03.133Z,101009.58
2019-04-16T20:53:32.956Z,101007.71
2019-04-16T20:56:02.749Z,101005.92
2019-04-16T20:58:32.637Z,101008.10
2019-04-16T21:01:03.807Z,101004.34
2019-04-16T21:03:33.703Z,101005.20
2019-04-16T21:06:07.475Z,101002.17
2019-04-16T21:08:35.028Z,101005.00
2019-04-16T21:11:08.837Z,100999.34
2019-04-16T21:13:36.441Z,101001.64
2019-04-16T21:16:06.264Z,100996.21
2019-04-16T21:18:36.152Z,100991.44
2019-04-16T21:21:07.074Z,100993.11
2019-04-16T21:23:36.845Z,100997.79
2019-04-16T21:26:06.597Z,100991.32
2019-04-16T21:28:38.031Z,100994.15
2019-04-16T21:31:12.976Z,100991.94
2019-04-16T21:33:44.995Z,100993.83
2019-04-16T21:36:25.255Z,100994.57
2019-04-16T21:38:56.710Z,100995.50
2019-04-16T21:41:28.764Z,100991.95
2019-04-16T21:43:58.197Z,100989.12
2019-04-16T21:46:27.957Z,100989.12
2019-04-16T21:49:01.636Z,100989.12
2019-04-16T21:51:31.479Z,100992.36
2019-04-16T21:54:01.426Z,100988.50
2019-04-16T21:56:31.172Z,100990.29
2019-04-16T21:59:04.741Z,100992.87
2019-04-16T22:01:36.894Z,100988.41
2019-04-16T22:04:13.227Z,100991.31
2019-04-16T22:06:39.932Z,100990.91
2019-04-16T22:09:11.676Z,100993.52
2019-04-16T22:11:44.325Z,100993.09
2019-04-16T22:14:14.369Z,101000.17
2019-04-16T22:16:44.296Z,100997.98
2019-04-16T22:19:14.931Z,100986.00
2019-04-16T22:21:45.397Z,100992.79
2019-04-16T22:24:15.283Z,100991.00
2019-04-16T22:26:45.117Z,100994.02
2019-04-16T22:29:15.805Z,100991.70
2019-04-16T22:31:46.245Z,100987.97
2019-04-16T22:34:16.085Z,100984.52
2019-04-16T22:36:45.900Z,100975.32
2019-04-16T22:39:23.534Z,100976.92
2019-04-16T22:42:07.112Z,100973.16
2019-04-16T22:44:53.447Z,100968.95
2019-04-16T22:47:27.672Z,100970.93
2019-04-16T22:50:14.361Z,100968.01
2019-04-16T22:52:29.226Z,100961.53
2019-04-16T22:54:59.056Z,100964.02
2019-04-16T22:57:30.923Z,100966.08
2019-04-16T23:00:00.476Z,100960.98
2019-04-16T23:02:31.181Z,100963.60
2019-04-16T23:05:01.028Z,100964.72
2019-04-16T23:07:30.850Z,100968.39
2019-04-16T23:10:00.613Z,100961.80
2019-04-16T23:12:30.556Z,100966.08
2019-04-16T23:15:00.429Z,100968.56
2019-04-16T23:17:30.320Z,100962.75
2019-04-16T23:20:00.178Z,100963.47
2019-04-16T23:22:29.922Z,100969.64
2019-04-16T23:24:59.871Z,100970.83
2019-04-16T23:27:29.796Z,100966.95
2019-04-16T23:29:59.617Z,100967.19
2019-04-16T23:32:29.545Z,100966.98
2019-04-16T23:34:59.358Z,100965.72
2019-04-16T23:37:29.193Z,100962.59
2019-04-16T23:39:59.108Z,100961.84
2019-04-16T23:42:29.044Z,100956.76
2019-04-16T23:45:16.848Z,100962.94
2019-04-16T23:47:57.460Z,100960.00
2019-04-16T23:50:43.814Z,100962.20
2019-04-16T23:53:07.864Z,100955.52
2019-04-16T23:55:37.031Z,100953.84
2019-04-16T23:58:14.468Z,100959.70
